このサイトで紹介しているのは、
私が発見した中古ドメインのリストです。

更新は7〜14日に1回を目安としています(不定期)

詳しい説明は以下のページをご覧ください。
このサイトで紹介している中古ドメインの品質は?

MOZドメインオーソリティの確認にはこちら(2-v.net)のサイトを使っています。

以下は私のメルマガですが、こちらでも中古ドメインを紹介していますので
もしよろしければ、ご登録ください。
アフィリエイトなどに使える中古ドメインを紹介!

 
<用語の説明>
*BL:同じドメインからのリンクを含むバックリンク数
(例えば、1つのドメインから100リンクされていれば100)
*BLD:クラスC分散に対応したバックリンクドメイン数
(2つのドメインからリンクされていても、クラスC分散されていなければ1)
*gov:リンクされている政府機関リンクの数
*edu:リンクされている教育機関リンクの数
*TF:Majesticトラストフロー
*CF:MajesticCitationフロー
*Whois:初めてwhoisに登録された年
*archive:初めてarchive.orgに登録された年
*HA:はてぶ数
*GSB:googleセーフブラウジングの結果

全ドメイン数333623件-該当ドメイン333623件-表示中200件
ダブルクリックでその行を非表示にできるようになりました。
Domain SEO BL BLD gov edu TF CF who arc GSBalexa wiki 発見日
artandmarc.com 4543 61 0 0 9 6 2020 2010 OK 0 0English 2020-11-25
didierposkin.com 24 6 0 0 11 7 2020 2010 OK 0 0Dutch 2020-11-25
discovertheparis.com 639 10 0 0 9 9 2020 2007 OK 0 0Japanese 2020-11-25
e-pianina.net 8884 122 0 1 18 10 2020 2013 OK 0 0English 2020-11-25
federacionplataformagetxo.com 43 6 0 0 4 7 2020 2015 OK 0 0Spanish 2020-11-25
fortheloveoffootballblog.com 4194 94 0 0 7 4 2020 2014 OK 0 0English 2020-11-25
garage-delamitry.com 37 5 0 0 4 7 2020 2015 OK 0 0French 2020-11-25
goktugetmakinalari.com 37 10 0 0 4 8 2020 2009 OK 0 0Turkish 2020-11-25
irishwanderings.com 48812 485 2 5 5 10 2020 2010 OK 0 0Latin 2020-11-25
isehara-gourmet.net 423 29 0 0 16 8 2020 2002 OK 0 0Russian 2020-11-25
lauralesterfournier.com 1384 23 0 0 6 6 2020 2007 OK 0 0Chinese 2020-11-25
photokado.com 238 10 0 0 10 8 2020 2009 OK 0 0French 2020-11-25
printempsdelaconvivialite.com 3797 105 0 0 7 8 2020 2007 OK 0 0English 2020-11-25
roetha-info.net 577 38 0 1 6 6 2020 2004 OK 0 13German 2020-11-25
summercourseforwinds.com 5232 68 0 0 7 10 2020 2014 OK 0 0English 2020-11-25
theindiebroccoli.com 32 9 0 0 5 9 2020 2015 OK 0 0English 2020-11-25
villa-zen.com 31 9 0 0 5 8 2020 2012 OK 0 0French 2020-11-24
elisabethwrites.com 35 9 0 0 4 8 2020 2008 OK 0 0English 2020-11-22
grace-dieu.com 40 10 0 0 5 8 2020 2001 OK 0 0French 2020-11-22
myslippersguide.com 47 24 0 0 4 10 2020 2005 OK 0 0English 2020-11-19
hitokoto.me 104 7 0 0 5 7 2020 2009 OK 0 0Japanese 2020-05-27
wohe.me 15 7 0 0 1 5 2020 2015 OK 0 0Chinese 2020-05-27
1planet.mobi 94 11 0 0 7 6 2020 2013 OK 0 0English 2020-06-05
braziliantoenglish.mobi 4049 7 0 0 1 8 2020 2013 OK 0 0Portuguese 2020-04-14
mediacontent.mobi 31 2 0 0 7 1 2020 2017 OK 0 0Spanish 2020-03-09
serialeonlinepe.net 692 27 0 0 2 9 2020 2011 OK 0 0English 2020-03-07
msn91.net 37 19 0 0 5 9 2020 2006 OK 0 0English 2020-04-01
12hr.net 362 24 0 0 3 7 2020 2006 OK 0 0Chinese 2020-03-31
eurosubmit.net 742 14 0 0 4 8 2020 2007 OK 0 0English 2020-03-30
spiralfittings.net 26 14 0 0 3 8 2020 2000 OK 0 0English 2020-03-29
sevenseafood.net 17 12 0 0 2 8 2020 2014 OK 0 0English 2020-03-28
lolyland.net 739 31 0 0 2 11 2020 2010 OK 0 0English 2020-03-27
the-starpeople.net 178 18 0 0 6 8 2020 2012 OK 0 0English 2020-03-27
lkmd.net 402 20 0 0 2 4 2020 2010 OK 0 0Indonesian 2020-03-26
jdsmanstories.net 625 12 0 0 3 7 2020 2009 OK 0 0English 2020-03-25
johnnewcombe.net 52 18 0 0 6 13 2020 2012 OK 0 0English 2020-03-25
planetitsuptoyou.net 188 11 0 0 4 8 2020 2011 OK 0 0French 2020-03-25
stereocapri.net 71 23 0 0 1 9 2020 2008 OK 0 0English 2020-03-25
abysses.net 33 11 0 0 5 8 2020 2000 OK 0 0French 2020-03-23
willownest.net 1141 16 0 0 8 10 2020 2007 OK 0 0English 2020-03-21
bbq-shop.net 152 13 0 0 1 9 2020 2006 OK 0 0English 2020-03-20
nnbc.net 88 11 0 0 4 8 2020 2001 OK 0 0English 2020-03-17
remotecarstarters.net 366 39 0 1 2 11 2020 2001 OK 0 0English 2020-03-16
aditee.net 884 108 0 1 1 1 2020 2003 OK 0 0English 2020-03-11
thegifthouse.net 43 11 0 0 3 8 2020 1998 OK 0 0English 2020-03-11
rnan.net 34 9 0 0 3 7 2020 2006 OK 0 0Arabic 2020-03-10
telolet4d.net 189 30 0 0 4 10 2020 2017 OK 0 0Indonesian 2020-03-10
novakmedia.net 26 14 0 0 6 8 2020 2003 OK 0 0English 2020-03-07
geniushackers.net 817 33 0 0 2 11 2020 2012 OK 0 0English 2020-03-06
jmjf.net 13906 23 0 1 4 9 2020 2015 OK 0 0Chinese 2020-03-03
loveplum.net 64 23 0 0 1 8 2020 2001 OK 0 0English 2020-02-29
gratuitjeux.net 816 35 0 0 2 10 2020 2009 OK 0 0French 2020-02-28
wrbn.net 90 14 0 0 5 8 2020 2006 OK 0 0English 2020-02-26
pkwd.net 47 15 0 0 2 12 2020 1999 OK 0 0English 2020-02-25
bellmap.net 16 6 0 0 6 5 2020 2004 OK 0 0Japanese 2020-02-23
club107.net 260 28 0 0 2 6 2020 2002 OK 0 0English 2020-02-23
yt5588.net 94 8 0 0 1 12 2020 2017 OK 0 0Chinese 2020-02-21
digsitesvalue.net 124 31 0 1 1 7 2020 2013 OK 0 0English 2020-02-08
wmii.net 1259 38 0 1 1 13 2020 2005 OK 0 0English 2020-02-01
carsongroup.net 56 10 0 0 7 7 2020 2001 OK 0 0English 2020-01-02
8easybits.net 287 21 0 0 6 9 2020 2007 OK 0 0English 2020-07-08
moverseway.net 36 13 0 0 3 8 2020 2001 OK 0 0English 2020-05-30
gardenstatemall.net 1837 171 0 0 1 5 2020 2010 OK 0 0English 2020-05-28
vlnka.net 3922 24 0 0 12 9 2020 2006 OK 0 0Czech 2020-05-28
tulatina.net 713 23 0 0 2 9 2020 2006 OK 0 0English 2020-05-26
handmade-natural-soap.net 121 20 0 0 14 12 2020 2006 OK 0 0English 2020-05-25
ickytwerp.net 117 15 0 0 15 9 2020 2001 OK 0 0English 2020-05-24
ledgerplus.net 34 17 0 0 5 9 2020 2000 OK 0 0English 2020-05-24
ihood.net 54 20 0 0 14 9 2020 1999 OK 0 0English 2020-05-22
howcollections.net 426 123 0 1 1 6 2020 2010 OK 0 0English 2020-05-21
zakagi.net 766 43 0 0 6 10 2020 2009 OK 0 0English 2020-05-21
the-winning-inning.net 727 108 0 0 1 6 2020 2001 OK 0 0English 2020-05-20
thewinninginning.net 504 137 0 1 1 6 2020 2001 OK 0 0English 2020-05-20
burlingtonflowers.net 51 18 0 0 1 9 2020 2010 OK 0 0English 2020-05-19
myvideotalk.net 77 16 0 0 6 8 2020 2004 OK 0 0English 2020-05-18
video-cable.net 43 12 0 0 7 8 2020 2013 OK 0 0English 2020-05-16
baby-bear.net 40 11 0 0 1 7 2020 2001 OK 0 0Japanese 2020-05-15
cognitive-science.net 69 6 0 0 4 6 2020 2001 OK 0 0German 2020-05-14
cs-ubytovani.net 341 17 0 0 3 13 2020 2009 OK 0 0Czech 2020-05-12
powertechuk.net 3039 34 0 0 12 9 2020 2002 OK 0 0English 2020-05-10
dvdbox.net 221 23 0 0 6 10 2020 2007 OK 0 0English 2020-05-09
onlyfreetv.net 879 24 0 0 2 12 2020 2008 OK 0 0English 2020-05-09
izine.net 138 12 0 0 7 7 2020 2002 OK 0 0French 2020-05-08
knockover.net 51 12 0 0 7 7 2020 2002 OK 0 0German 2020-05-08
realityis.net 955 132 1 3 1 7 2020 2001 OK 0 0English 2020-05-08
fish-in-the.net 35 11 0 0 2 9 2020 2002 OK 0 0English 2020-05-06
tghosting.net 142 16 0 1 6 8 2020 2008 OK 0 0English 2020-05-04
edfoundation.net 156 14 0 0 1 8 2020 2001 OK 0 0English 2020-05-01
pleaseteacher.net 40 16 0 0 7 8 2020 2003 OK 0 1English 2020-04-30
location-4x4-marrakech.net 9304 152 1 0 9 12 2020 2010 OK 0 0English 2020-04-26
house-of-hope.net 76 22 0 0 12 10 2020 2000 OK 0 0English 2020-04-25
cartoonpalace.net 262 15 0 0 4 6 2020 2006 OK 0 0English 2020-04-24
muscleweightgain.net 224 20 0 1 12 9 2020 2010 OK 0 0English 2020-04-24
voorbehoedsmiddelen.net 37 23 0 0 3 8 2020 2009 OK 0 0Dutch 2020-04-20
555bo.net 748 23 0 0 2 14 2020 2010 OK 0 0Chinese 2020-04-19
drkeyboard.net 50 11 0 0 12 13 2020 2001 OK 0 0English 2020-04-19
sqlnet.net 413 103 1 1 1 4 2020 2001 OK 0 0English 2020-04-16
ecomodel.net 114 19 0 0 7 10 2020 2000 OK 0 0English 2020-04-15
cuel.net 2940 17 0 0 8 11 2020 2004 OK 0 0Japanese 2020-04-14
fespress.net 1044 68 0 0 5 10 2020 2012 OK 0 1English 2020-04-14
rooznevesht.net 4895 25 0 0 2 8 2020 2010 OK 0 3Persian 2020-04-14
thoughtless-strider.net 72 13 0 0 3 4 2020 2013 OK 0 0English 2020-04-14
tradingplanet.net 65 8 0 0 3 1 2020 2001 OK 0 0German 2020-04-14
branchesonline.net 61 17 0 0 6 9 2020 2000 OK 0 0Dutch 2020-04-13
ccpsc.net 231 12 0 0 18 7 2020 2004 OK 0 0English 2020-04-13
khansaa.net 145777 9 0 0 3 12 2020 2004 OK 0 0Vietnamese 2020-04-13
omsn.net 668 28 0 0 3 10 2020 2007 OK 0 0English 2020-04-13
yufuin1.net 51 11 0 0 6 8 2020 2010 OK 0 0Japanese 2020-04-13
xq365.net 158 13 0 1 3 8 2020 2005 OK 0 0Japanese 2020-04-12
ojpc.net 29 12 0 0 2 6 2020 2000 OK 0 0Japanese 2020-04-11
keies.net 919 32 0 0 3 10 2020 2004 OK 0 0Japanese 2020-04-07
trimmaster.net 234 57 0 1 3 9 2020 1999 OK 0 0English 2020-04-07
ckbt.net 89 11 0 0 3 9 2020 2009 OK 0 0Russian 2020-04-04
nullfiles.net 85 16 0 0 3 9 2020 2018 OK 0 0Polish 2020-04-04
stevesappliancerepairllc.com 57 4 0 0 9 4 2020 2015 OK 0 0English 2020-11-29
geneva-initiative.org 56 15 0 0 22 14 2020 1999 OK 0 0English 2020-11-24
jwgoethe.org 23 8 0 0 8 7 2020 2008 OK 0 1Dutch 2020-11-24
goldstonesilver.com 31 13 0 0 5 9 2020 2009 OK 0 0English 2020-12-01
artstudio-jp.com 74 23 0 0 9 10 2020 2001 OK 0 0Japanese 2020-12-05
gisberga.com 37 14 0 0 5 9 2020 2011 OK 0 0English 2020-12-05
ibp2020.com 32 11 0 0 6 1 2020 2018 OK 0 0Japanese 2020-12-05
kensfamilyc-on.com 12 6 0 0 5 8 2020 2019 OK 0 0Japanese 2020-12-05
lapoesiadeteresa.com 462 9 0 0 4 8 2020 2007 OK 0 0Spanish 2020-12-05
mytigerside.com 62 13 0 0 6 9 2020 2012 OK 0 0French 2020-12-05
tedxhochschuleluzern.com 31 11 0 0 7 8 2020 2016 OK 0 0German 2020-12-05
theatrecaravel.com 45 12 0 0 5 8 2020 2009 OK 0 0English 2020-12-05
petepurdy.com 15 9 0 0 20 8 2020 2003 OK 0 0English 2020-12-02
wasanbetta.net 207 21 0 0 20 11 2020 2004 OK 0 0English 2020-12-01
green-staff.jp 70 9 0 0 10 9 2020 2012 OK 0 0Japanese 2020-11-30
lenovo-yoga.jp 3979 25 0 0 4 10 2020 2014 OK 0 0Japanese 2020-11-30
seeking-sunshine.jp 342 11 0 0 6 8 2020 2013 OK 0 0Japanese 2020-11-30
ybp2011.jp 67 16 0 0 8 10 2020 2014 OK 0 1Japanese 2020-11-30
facebooktest.com 168 24 0 0 5 10 2020 2008 OK 0 0English 2020-12-19
shaunwoodward.com 552 48 0 0 11 2 2020 2001 OK 0 10English 2020-12-19
atnd-kensaku.net 13 9 0 0 4 7 2020 2011 OK 0 0Japanese 2020-12-17
comomavi.com 2982 9 0 0 5 10 2020 2013 OK 0 0Japanese 2020-12-17
cuore-aoyama.com 29 11 0 0 4 8 2020 2005 OK 0 0Japanese 2020-12-17
denpajack.net 59 10 0 0 4 7 2020 2007 OK 0 0Japanese 2020-12-17
dream-rent-room.net 35 12 0 0 6 9 2020 2016 OK 0 0Japanese 2020-12-17
espere-dental.com 138 12 0 0 9 8 2020 2013 OK 0 0Japanese 2020-12-17
hos-games.com 100 18 0 0 8 10 2020 2014 OK 0 0Japanese 2020-12-17
misawa-shika.com 60 15 0 0 5 8 2020 2007 OK 0 0Japanese 2020-12-17
n-scolle.net 194 24 0 0 7 9 2020 2016 OK 0 0Japanese 2020-12-17
oyasaibistoro-shiawase.com 29 9 0 0 4 7 2020 2015 OK 0 0Japanese 2020-12-17
yuukaku-yuya.com 105 18 0 0 5 9 2020 2014 OK 0 0Japanese 2020-12-17
assolavori.com 360 12 0 0 6 4 2020 2008 OK 0 0Italian 2020-12-16
movimentdebrigadistes.org 14 10 0 0 8 11 2020 2006 OK 0 2Catalan 2020-12-16
sobstrings.net 308 19 0 0 6 10 2020 2006 OK 0 0English 2020-12-16
stvincentschool.net 19 8 0 0 5 9 2020 2005 OK 0 0English 2020-12-16
globe-arts.net 30 14 0 0 11 9 2020 1999 OK 0 1English 2020-12-11
autosenergy.com 709 31 0 0 7 13 2020 2017 OK 0 0English 2020-12-10
encuentroalternativo.com 864 56 0 0 6 10 2020 2007 OK 0 0Spanish 2020-12-10
free-reprint-articles.com 783 62 0 0 9 13 2020 2008 OK 7041356 1English 2020-12-10
marielyst.org 31 10 0 0 20 8 2020 2001 OK 0 0German 2020-12-10
nyc-massage.com 56 15 0 0 7 8 2020 2003 OK 0 0English 2020-12-10
photoornaments.net 96 14 0 0 12 9 2020 2011 OK 0 0English 2020-12-10
rupprechtmatthies.com 29 10 0 0 5 7 2020 2013 OK 0 3German 2020-12-10
saddleandleathershop.com 117 34 0 0 18 6 2020 2003 OK 0 0English 2020-12-10
afhaalrestaurants.com 60 8 0 0 6 9 2020 2020 OK 0 0Dutch 2020-12-09
bigunix.com 34 9 0 0 4 10 2020 2002 OK 0 0English 2020-12-09
costapacific.net 95 15 0 0 8 9 2020 2000 OK 0 0English 2020-12-09
e-stretch.net 46 18 0 0 6 8 2020 1999 OK 0 0English 2020-12-09
isponge.net 2003 26 0 0 6 11 2020 2006 OK 0 0Korean 2020-12-09
it-helplinenumber.com 103 12 0 0 5 8 2020 2017 OK 0 0English 2020-12-09
citywideselfstorage.net 125 17 0 0 4 10 2020 2005 OK 0 0Japanese 2020-12-08
doodlecook.com 194 41 0 1 9 10 2020 2012 OK 0 0English 2020-12-08
mynovascotia.net 64 20 0 0 13 9 2020 2001 OK 0 0English 2020-12-08
postapocalypticforum.com 653 28 0 0 9 10 2020 2010 OK 0 0English 2020-12-08
privatesalepartners.com 89 13 0 0 8 1 2020 2007 OK 0 0English 2020-12-08
rasplan.com 5032 154 0 0 6 22 2020 2010 OK 0 0Chinese 2020-12-08
saratoganeedlearts.com 118372 36 0 0 12 9 2020 2003 OK 0 0English 2020-12-08
thepale.net 17 10 0 0 6 8 2020 2000 OK 0 0English 2020-12-08
witchinghoursociety.com 41 16 0 0 6 8 2020 2013 OK 0 0English 2020-12-08
911attackmemorial.com 25 9 0 0 10 7 2020 2001 OK 0 0English 2020-12-07
francebound.net 23 12 0 0 4 8 2020 2001 OK 0 0English 2020-12-07
pbems.net 492 12 0 0 9 10 2020 2004 OK 0 1Italian 2020-12-07
vijnana.org 51 9 0 0 19 7 2020 2003 OK 0 1English 2020-12-07
zarascateringservices.com 112 9 0 0 7 8 2020 2009 OK 0 0English 2020-12-07
actorsnw.com 22 8 0 0 5 7 2020 2000 OK 0 0English 2020-12-06
gulfcoastfanfest.com 106 28 0 0 5 9 2020 2018 OK 0 0English 2020-12-06
holidaycitysuperstore.com 432 41 0 0 6 10 2020 2004 OK 0 0English 2020-12-06
signhereonline.net 25 13 0 0 11 8 2020 2002 OK 0 0English 2020-12-06
southamericadiscover.com 14 9 0 0 8 11 2020 2003 OK 0 0English 2020-12-06
vietnam-hotels.net 283 10 0 0 4 9 2020 2002 OK 0 0English 2020-12-06
wannawiki.com 78 13 0 0 8 9 2020 2004 OK 0 1English 2020-12-06
bowdenpioneermuseum.com 18 8 0 0 9 8 2020 2013 OK 0 1English 2020-12-26
cna-certificationhub.com 870 14 0 0 5 10 2020 2015 OK 0 0English 2020-12-26
cravemtp.com 14373 346 2 5 6 10 2020 2008 OK 0 0English 2020-12-26
davidgregoryofficialsite.com 28 21 0 0 4 9 2020 2010 OK 0 7English 2020-12-26
floralpinesdesignco.com 44 13 0 0 5 8 2020 2016 OK 0 0Portuguese 2020-12-26
future-logic.com 850 28 0 1 7 7 2020 1998 OK 0 0Chinese 2020-12-26
hozoryar.com 3569 17 0 0 5 9 2020 2013 OK 0 0Persian 2020-12-26
iyengaryogacenterhouston.com 96 11 0 0 4 9 2020 2009 OK 0 0English 2020-12-26
jcduc-leignec.com 14854 332 1 3 4 4 2020 2015 OK 0 0English 2020-12-26
kennelalfarheim.com 1647 28 0 0 4 2 2020 2014 OK 0 0Korean 2020-12-26
kingstreetbeverageco.com 1067 27 0 0 5 9 2020 2015 OK 0 0Korean 2020-12-26
nanoteknolojinedir.com 518 32 0 0 16 4 2020 2007 OK 0 0German 2020-12-26
rapidcitybusinessbroker-reygonzales-murphy.com 678 29 0 0 6 6 2020 2013 OK 0 0German 2020-12-26
rbtcentralasia.com 991 28 0 0 7 4 2020 2016 OK 0 0German 2020-12-26
sensesoverloaded.com 51 10 0 0 6 8 2020 2007 OK 0 0English 2020-12-26
お名前.com ドメイン登録

PAGE TOP